Time;durP1;ratioP1;P1;durP2;ratioP2;P2;SDS_P1;SDS_P2;PMS_P1;PMS_P2;Temp;Humidity;BMP_temperature;BMP_pressure;BME280_temperature;BME280_humidity;BME280_pressure;Samples;Min_cycle;Max_cycle;Signal;HPM_P1;HPM_P2
2022/12/13 00:04:03;;;;;;;36.37;12.07;;;;;-9.80;95668.00;;;;8266803;28;20637;-70
2022/12/13 00:08:06;;;;;;;30.43;11.13;;;;;-9.90;95663.00;;;;8266786;28;20205;-70
2022/12/13 00:12:10;;;;;;;41.07;12.50;;;;;-9.90;95668.00;;;;8266590;28;20203;-70
2022/12/13 00:16:15;;;;;;;23.93;10.07;;;;;-9.90;95651.00;;;;8266789;28;20222;-70
2022/12/13 00:20:19;;;;;;;25.47;10.23;;;;;-10.10;95652.00;;;;8267154;28;20648;-70
2022/12/13 00:24:22;;;;;;;22.73;10.50;;;;;-10.00;95654.00;;;;8266842;28;20199;-70
2022/12/13 00:28:25;;;;;;;34.70;10.47;;;;;-9.90;95660.00;;;;8265614;28;20199;-70
2022/12/13 00:32:28;;;;;;;33.43;11.70;;;;;-9.80;95665.00;;;;8266307;28;20199;-70
2022/12/13 00:37:06;;;;;;;28.00;10.93;;;;;-9.80;95652.00;;;;8265452;28;20226;-70
2022/12/13 00:41:12;;;;;;;34.27;12.63;;;;;-9.80;95654.00;;;;8266299;28;20218;-69
2022/12/13 00:45:15;;;;;;;24.00;10.60;;;;;-9.80;95651.00;;;;8265779;28;20187;-69
2022/12/13 00:49:18;;;;;;;27.40;10.10;;;;;-9.90;95658.00;;;;8266371;28;20202;-70
2022/12/13 00:53:23;;;;;;;31.00;10.90;;;;;-9.90;95649.00;;;;8266042;28;20586;-70
2022/12/13 00:57:27;;;;;;;30.37;9.87;;;;;-10.00;95651.00;;;;8265656;28;20230;-71
2022/12/13 01:01:32;;;;;;;32.63;10.93;;;;;-10.00;95641.00;;;;8266413;28;20675;-71
2022/12/13 01:06:10;;;;;;;28.83;10.70;;;;;-10.10;95642.00;;;;8271867;28;20222;-71
2022/12/13 01:10:19;;;;;;;23.47;9.53;;;;;-10.10;95643.00;;;;8272258;28;20203;-71
2022/12/13 01:14:22;;;;;;;26.03;9.43;;;;;-10.10;95635.00;;;;8270884;28;20223;-71
2022/12/13 01:18:26;;;;;;;27.17;10.13;;;;;-10.20;95638.00;;;;8272176;28;20564;-71
2022/12/13 01:22:29;;;;;;;27.13;8.63;;;;;-10.10;95627.00;;;;8270629;28;20198;-70
2022/12/13 01:26:33;;;;;;;30.07;11.00;;;;;-10.10;95620.00;;;;8271680;28;20206;-71
2022/12/13 01:30:36;;;;;;;26.57;10.80;;;;;-10.10;95620.00;;;;8270830;28;20242;-71
2022/12/13 01:35:12;;;;;;;24.23;9.73;;;;;-10.00;95615.00;;;;8270941;28;20231;-71
2022/12/13 01:39:19;;;;;;;28.43;8.53;;;;;-10.10;95613.00;;;;8268728;28;20196;-71
2022/12/13 01:43:51;;;;;;;25.80;9.37;;;;;-10.10;95625.00;;;;8271775;28;20205;-70
2022/12/13 01:47:58;;;;;;;24.60;8.77;;;;;-10.10;95609.00;;;;8271028;28;20540;-70
2022/12/13 01:52:30;;;;;;;26.80;9.37;;;;;-10.10;95619.00;;;;8270756;28;20204;-70
2022/12/13 01:56:38;;;;;;;23.80;8.67;;;;;-10.20;95606.00;;;;8270514;28;20223;-71
2022/12/13 02:00:44;;;;;;;24.93;10.53;;;;;-10.30;95615.00;;;;8270343;28;20196;-72
2022/12/13 02:04:53;;;;;;;30.33;10.13;;;;;-10.30;95609.00;;;;8270412;28;20685;-72
2022/12/13 02:08:57;;;;;;;27.93;10.43;;;;;-10.30;95604.00;;;;8269609;28;20250;-72
2022/12/13 02:18:21;;;;;;;29.90;9.47;;;;;-10.40;95607.00;;;;8268968;28;20227;-70
2022/12/13 02:22:47;;;;;;;27.67;9.03;;;;;-10.40;95604.00;;;;8269762;28;20202;-70
2022/12/13 02:27:10;;;;;;;30.13;9.60;;;;;-10.50;95605.00;;;;8269351;28;20257;-71
2022/12/13 02:31:18;;;;;;;27.40;9.57;;;;;-10.50;95601.00;;;;8269217;28;20206;-71
2022/12/13 02:35:26;;;;;;;23.53;9.73;;;;;-10.50;95604.00;;;;8268891;28;20285;-71
2022/12/13 02:39:33;;;;;;;24.87;9.77;;;;;-10.40;95594.00;;;;8269897;28;20284;-71
2022/12/13 02:43:42;;;;;;;23.97;9.43;;;;;-10.40;95596.00;;;;8268338;28;20250;-71
2022/12/13 02:48:15;;;;;;;28.03;9.80;;;;;-10.50;95593.00;;;;8268990;28;20212;-70
2022/12/13 02:52:21;;;;;;;27.70;9.90;;;;;-10.50;95588.00;;;;8268067;28;20192;-71
2022/12/13 02:56:24;;;;;;;23.30;8.83;;;;;-10.50;95596.00;;;;8268325;28;20227;-71
2022/12/13 03:09:37;;;;;;;25.93;8.63;;;;;-10.00;95585.00;;;;8212815;28;20208;-72
2022/12/13 03:13:49;;;;;;;22.53;8.90;;;;;-9.80;95584.00;;;;8214035;28;20203;-71
2022/12/13 03:17:55;;;;;;;22.93;9.20;;;;;-9.60;95579.00;;;;8220491;28;20235;-72
2022/12/13 03:22:00;;;;;;;30.77;10.33;;;;;-9.40;95589.00;;;;8208639;28;20212;-72
2022/12/13 03:26:08;;;;;;;32.23;10.73;;;;;-9.20;95574.00;;;;8221107;28;20201;-72
2022/12/13 03:30:12;;;;;;;32.27;11.67;;;;;-9.00;95584.00;;;;8216845;28;20204;-72
2022/12/13 03:34:15;;;;;;;26.83;10.67;;;;;-8.80;95588.00;;;;8221012;28;20614;-71
2022/12/13 03:38:26;;;;;;;28.17;11.93;;;;;-8.40;95580.00;;;;8215206;28;20323;-72
2022/12/13 03:42:29;;;;;;;32.50;10.87;;;;;-8.00;95574.00;;;;8219019;28;20201;-72
2022/12/13 03:46:32;;;;;;;33.50;12.33;;;;;-7.50;95565.00;;;;8214600;28;20220;-72
2022/12/13 03:50:35;;;;;;;25.63;10.07;;;;;-7.20;95561.00;;;;8219758;28;20202;-72
2022/12/13 03:54:40;;;;;;;24.27;8.97;;;;;-6.90;95558.00;;;;8220993;28;20803;-72
2022/12/13 03:58:47;;;;;;;37.43;13.30;;;;;-6.70;95559.00;;;;8219379;28;20227;-72
2022/12/13 04:02:51;;;;;;;42.23;13.43;;;;;-6.50;95546.00;;;;8215665;28;20242;-70
2022/12/13 04:06:55;;;;;;;33.13;13.30;;;;;-6.30;95555.00;;;;8221177;28;20222;-71
2022/12/13 04:13:31;;;;;;;37.43;13.63;;;;;-6.20;95549.00;;;;8221791;28;20242;-71
2022/12/13 04:15:22;;;;;;;41.77;14.23;;;;;-6.10;95551.00;;;;8217675;28;20226;-71
2022/12/13 04:19:25;;;;;;;37.40;12.17;;;;;-6.00;95552.00;;;;8218254;28;20209;-72
2022/12/13 04:23:28;;;;;;;33.40;11.03;;;;;-5.90;95561.00;;;;8221329;28;20201;-72
2022/12/13 04:27:33;;;;;;;57.57;14.27;;;;;-5.80;95549.00;;;;8220192;28;20767;-72
2022/12/13 04:31:36;;;;;;;44.90;14.47;;;;;-5.80;95546.00;;;;8210066;28;20204;-72
2022/12/13 04:35:39;;;;;;;45.80;13.87;;;;;-5.60;95548.00;;;;8213727;28;20230;-72
2022/12/13 04:39:43;;;;;;;44.97;13.63;;;;;-5.50;95544.00;;;;8234030;28;20202;-72
2022/12/13 04:43:52;;;;;;;50.77;14.00;;;;;-5.50;95545.00;;;;8227579;28;20207;-72
2022/12/13 04:47:56;;;;;;;40.13;14.83;;;;;-5.40;95545.00;;;;8224179;28;20273;-72
2022/12/13 04:51:59;;;;;;;48.90;14.27;;;;;-5.40;95552.00;;;;8225279;28;20685;-72
2022/12/13 04:56:05;;;;;;;45.97;14.00;;;;;-5.30;95544.00;;;;8222454;28;20323;-72
2022/12/13 05:00:13;;;;;;;53.60;16.03;;;;;-5.20;95547.00;;;;8224694;28;20192;-72
2022/12/13 05:04:16;;;;;;;53.60;15.47;;;;;-5.20;95538.00;;;;8220594;28;20234;-72
2022/12/13 05:08:20;;;;;;;51.30;16.13;;;;;-5.20;95535.00;;;;8220498;28;20202;-72
2022/12/13 05:12:23;;;;;;;67.87;17.60;;;;;-5.10;95544.00;;;;8225142;28;20225;-72
2022/12/13 05:16:28;;;;;;;54.30;15.43;;;;;-5.10;95539.00;;;;8224056;28;21045;-72
2022/12/13 05:20:31;;;;;;;58.03;16.00;;;;;-5.00;95537.00;;;;8219571;28;20759;-72
2022/12/13 05:24:34;;;;;;;51.43;17.40;;;;;-5.00;95529.00;;;;8225722;28;20223;-70
2022/12/13 05:28:37;;;;;;;60.20;16.20;;;;;-5.00;95535.00;;;;8225380;28;20234;-72
2022/12/13 05:32:42;;;;;;;63.60;15.13;;;;;-5.00;95532.00;;;;8217250;28;20229;-72
2022/12/13 05:36:46;;;;;;;41.40;11.00;;;;;-5.10;95532.00;;;;8222337;28;20325;-72
2022/12/13 05:40:50;;;;;;;59.47;16.33;;;;;-5.20;95525.00;;;;8226259;28;20193;-72
2022/12/13 05:44:53;;;;;;;53.30;16.70;;;;;-5.30;95534.00;;;;8232997;28;20200;-72
2022/12/13 05:48:58;;;;;;;49.77;16.23;;;;;-5.20;95537.00;;;;8222923;28;20640;-72
2022/12/13 05:53:01;;;;;;;43.80;14.23;;;;;-5.20;95529.00;;;;8227121;28;20207;-71
2022/12/13 05:57:04;;;;;;;48.77;16.00;;;;;-5.20;95529.00;;;;8224304;28;21865;-72
2022/12/13 06:01:09;;;;;;;42.87;14.93;;;;;-5.10;95534.00;;;;8230457;28;20234;-71
2022/12/13 06:05:14;;;;;;;41.73;14.73;;;;;-5.10;95538.00;;;;8219682;28;20646;-71
2022/12/13 06:09:17;;;;;;;52.17;16.83;;;;;-5.10;95536.00;;;;8218802;28;20631;-71
2022/12/13 06:13:20;;;;;;;47.30;15.20;;;;;-5.10;95528.00;;;;8223191;28;20200;-71
2022/12/13 06:17:35;;;;;;;47.53;16.77;;;;;-5.10;95521.00;;;;8218428;28;20249;-71
2022/12/13 06:21:40;;;;;;;45.93;14.27;;;;;-5.10;95532.00;;;;8226988;28;20538;-71
2022/12/13 06:25:48;;;;;;;39.30;13.77;;;;;-5.20;95537.00;;;;8221504;28;20208;-71
2022/12/13 06:29:53;;;;;;;47.17;13.97;;;;;-5.30;95523.00;;;;8223999;28;20262;-70
2022/12/13 06:34:01;;;;;;;34.47;14.17;;;;;-5.30;95530.00;;;;8222149;28;20203;-70
2022/12/13 06:38:18;;;;;;;40.53;14.87;;;;;-5.30;95530.00;;;;8216143;28;20237;-71
2022/12/13 06:42:33;;;;;;;44.57;14.90;;;;;-5.30;95528.00;;;;8224507;28;20202;-71
2022/12/13 06:46:37;;;;;;;43.03;14.40;;;;;-5.30;95525.00;;;;8215930;28;21026;-71
2022/12/13 06:50:42;;;;;;;48.17;15.57;;;;;-5.30;95522.00;;;;8214027;28;20315;-71
2022/12/13 06:54:47;;;;;;;41.80;14.50;;;;;-5.40;95524.00;;;;8226807;28;20564;-71
2022/12/13 06:58:50;;;;;;;45.53;13.73;;;;;-5.40;95532.00;;;;8220290;28;20635;-71
2022/12/13 07:02:53;;;;;;;43.73;14.80;;;;;-5.40;95526.00;;;;8221032;28;20230;-70
2022/12/13 07:06:57;;;;;;;42.07;14.70;;;;;-5.40;95531.00;;;;8228091;28;20853;-70
2022/12/13 07:11:05;;;;;;;39.13;13.37;;;;;-5.50;95534.00;;;;8227485;28;20592;-71
2022/12/13 07:15:10;;;;;;;37.40;13.10;;;;;-5.50;95538.00;;;;8228153;28;20262;-72
2022/12/13 07:19:13;;;;;;;44.00;14.97;;;;;-5.50;95532.00;;;;8227138;28;20229;-72
2022/12/13 07:23:26;;;;;;;42.10;13.53;;;;;-5.50;95534.00;;;;8223136;28;20208;-72
2022/12/13 07:27:30;;;;;;;36.33;12.63;;;;;-5.50;95538.00;;;;8225443;28;20215;-72
2022/12/13 07:31:35;;;;;;;37.97;13.53;;;;;-5.50;95530.00;;;;8225074;28;20306;-71
2022/12/13 07:35:38;;;;;;;41.30;14.93;;;;;-5.50;95533.00;;;;8221797;28;20824;-72
2022/12/13 07:39:41;;;;;;;37.90;13.67;;;;;-5.50;95536.00;;;;8222740;28;20629;-71
2022/12/13 07:43:46;;;;;;;40.13;14.30;;;;;-5.40;95536.00;;;;8215738;28;20265;-71
2022/12/13 07:47:57;;;;;;;36.70;12.57;;;;;-5.40;95539.00;;;;8215793;28;20226;-72
2022/12/13 07:52:00;;;;;;;35.27;13.67;;;;;-5.50;95543.00;;;;8214651;28;20325;-72
2022/12/13 07:56:03;;;;;;;30.63;12.10;;;;;-5.70;95542.00;;;;8218383;28;20227;-71
2022/12/13 08:00:09;;;;;;;32.70;13.23;;;;;-5.70;95543.00;;;;8219019;28;20660;-71
2022/12/13 08:04:12;;;;;;;33.57;11.87;;;;;-5.80;95539.00;;;;8220820;28;20711;-70
2022/12/13 08:08:16;;;;;;;31.03;12.80;;;;;-5.90;95531.00;;;;8224053;28;20196;-71
2022/12/13 08:12:21;;;;;;;29.80;11.03;;;;;-5.90;95532.00;;;;8215276;28;20196;-72
2022/12/13 08:16:26;;;;;;;30.60;10.57;;;;;-5.90;95537.00;;;;8220223;28;20969;-72
2022/12/13 08:20:31;;;;;;;33.50;10.33;;;;;-5.90;95544.00;;;;8216779;28;20203;-72
2022/12/13 08:24:35;;;;;;;28.40;11.03;;;;;-5.80;95549.00;;;;8217352;28;20569;-71
2022/12/13 08:28:38;;;;;;;25.97;10.03;;;;;-5.80;95550.00;;;;8217248;28;20206;-71
2022/12/13 08:32:43;;;;;;;23.37;9.33;;;;;-5.80;95548.00;;;;8217812;28;20215;-71
2022/12/13 08:36:46;;;;;;;26.60;10.03;;;;;-5.70;95553.00;;;;8221141;28;20199;-70
2022/12/13 08:40:49;;;;;;;21.80;9.80;;;;;-5.70;95561.00;;;;8218867;28;20257;-72
2022/12/13 08:44:53;;;;;;;26.67;9.73;;;;;-5.70;95563.00;;;;8227266;28;20732;-71
2022/12/13 08:48:58;;;;;;;20.37;9.60;;;;;-5.50;95572.00;;;;8214452;28;20210;-72
2022/12/13 08:53:01;;;;;;;23.00;9.57;;;;;-5.40;95577.00;;;;8212964;28;20660;-72
2022/12/13 08:57:04;;;;;;;23.10;8.93;;;;;-5.30;95570.00;;;;8215764;28;20227;-72
2022/12/13 09:01:08;;;;;;;21.07;9.20;;;;;-5.20;95567.00;;;;8213348;28;20257;-72
2022/12/13 09:05:13;;;;;;;21.47;9.53;;;;;-5.20;95579.00;;;;8216220;28;20206;-71
2022/12/13 09:09:36;;;;;;;27.40;9.13;;;;;-5.30;95580.00;;;;8215208;28;20708;-72
2022/12/13 09:13:40;;;;;;;23.90;8.93;;;;;-5.30;95583.00;;;;8216064;28;20195;-72
2022/12/13 09:17:46;;;;;;;23.83;9.97;;;;;-5.30;95571.00;;;;8213749;28;20223;-72
2022/12/13 09:21:57;;;;;;;19.27;8.47;;;;;-5.30;95571.00;;;;8215472;28;20868;-72
2022/12/13 09:26:05;;;;;;;20.33;8.33;;;;;-5.30;95570.00;;;;8223116;28;20203;-73
2022/12/13 09:30:12;;;;;;;19.43;8.70;;;;;-5.20;95561.00;;;;8222175;28;20961;-73
2022/12/13 09:34:15;;;;;;;17.73;7.90;;;;;-5.20;95558.00;;;;8224893;28;20199;-73
2022/12/13 09:38:19;;;;;;;21.83;9.10;;;;;-5.10;95550.00;;;;8223285;28;20216;-73
2022/12/13 09:42:25;;;;;;;16.47;8.00;;;;;-5.00;95560.00;;;;8218513;28;20998;-73
2022/12/13 09:46:36;;;;;;;15.40;8.20;;;;;-4.90;95556.00;;;;8217342;28;20604;-73
2022/12/13 09:50:47;;;;;;;18.90;7.77;;;;;-4.80;95556.00;;;;8218974;28;20884;-71
2022/12/13 09:55:02;;;;;;;19.07;9.17;;;;;-4.70;95543.00;;;;8218094;28;20234;-73
2022/12/13 09:59:14;;;;;;;17.37;8.63;;;;;-4.60;95550.00;;;;8224523;28;20704;-73
2022/12/13 10:03:20;;;;;;;25.80;9.43;;;;;-4.50;95551.00;;;;8222723;28;20231;-73
2022/12/13 10:07:24;;;;;;;19.63;8.97;;;;;-4.40;95545.00;;;;8223652;28;20214;-72
2022/12/13 10:11:29;;;;;;;21.40;9.27;;;;;-4.10;95539.00;;;;8224541;28;20223;-73
2022/12/13 10:15:37;;;;;;;21.53;8.97;;;;;-4.00;95534.00;;;;8218354;28;20207;-73
2022/12/13 10:19:44;;;;;;;22.53;8.97;;;;;-4.00;95522.00;;;;8216039;28;20238;-73
2022/12/13 10:23:47;;;;;;;22.33;9.70;;;;;-3.90;95521.00;;;;8220157;28;20206;-73
2022/12/13 10:28:12;;;;;;;24.73;9.07;;;;;-3.80;95520.00;;;;8222124;28;20196;-70
2022/12/13 10:32:17;;;;;;;27.87;9.50;;;;;-3.70;95518.00;;;;8224290;28;20258;-72
2022/12/13 10:36:32;;;;;;;20.67;9.00;;;;;-3.60;95525.00;;;;8222383;28;20202;-72
2022/12/13 10:40:39;;;;;;;19.33;8.73;;;;;-3.40;95527.00;;;;8219826;28;20554;-71
2022/12/13 10:44:43;;;;;;;24.47;9.70;;;;;-3.30;95535.00;;;;8214737;28;20246;-72
2022/12/13 10:48:49;;;;;;;25.37;9.80;;;;;-3.30;95516.00;;;;8221012;28;20230;-72
2022/12/13 10:52:53;;;;;;;20.00;8.03;;;;;-3.30;95524.00;;;;8217743;28;20266;-72
2022/12/13 10:56:59;;;;;;;19.03;8.63;;;;;-3.30;95521.00;;;;8215460;28;20203;-72
2022/12/13 11:01:46;;;;;;;20.50;8.67;;;;;-3.30;95513.00;;;;8235836;28;20219;-71
2022/12/13 11:06:20;;;;;;;13.73;7.20;;;;;-3.20;95527.00;;;;8229748;28;20295;-71
2022/12/13 11:10:25;;;;;;;18.67;8.30;;;;;-3.10;95506.00;;;;8235673;28;20647;-70
2022/12/13 11:14:33;;;;;;;20.43;7.30;;;;;-2.90;95507.00;;;;8236137;28;20192;-71
2022/12/13 11:18:52;;;;;;;18.33;7.30;;;;;-2.90;95501.00;;;;8236596;28;20226;-68
2022/12/13 11:23:26;;;;;;;17.77;7.77;;;;;-3.00;95497.00;;;;8236339;28;20637;-71
2022/12/13 11:28:04;;;;;;;16.13;7.47;;;;;-2.70;95488.00;;;;8235169;28;20203;-71
2022/12/13 11:32:39;;;;;;;14.53;6.30;;;;;-2.60;95488.00;;;;8235486;28;20199;-71
2022/12/13 11:36:49;;;;;;;14.90;6.33;;;;;-2.60;95485.00;;;;8235467;28;20199;-71
2022/12/13 11:40:59;;;;;;;17.27;7.53;;;;;-2.50;95491.00;;;;8234983;28;20227;-71
2022/12/13 11:45:31;;;;;;;15.47;7.30;;;;;-2.40;95481.00;;;;8235282;28;20222;-71
2022/12/13 11:49:39;;;;;;;17.27;8.80;;;;;-2.30;95483.00;;;;8235364;28;20705;-72
2022/12/13 11:53:51;;;;;;;17.83;8.10;;;;;-2.30;95481.00;;;;8235303;28;20622;-71
2022/12/13 11:58:01;;;;;;;18.90;8.20;;;;;-2.20;95475.00;;;;8235417;28;20225;-71
2022/12/13 12:02:32;;;;;;;31.13;9.03;;;;;-2.20;95477.00;;;;8234950;28;20219;-71
2022/12/13 12:06:40;;;;;;;18.80;8.10;;;;;-2.20;95469.00;;;;8234829;28;20294;-70
2022/12/13 12:10:47;;;;;;;21.90;8.67;;;;;-2.30;95451.00;;;;8235500;28;20287;-72
2022/12/13 12:15:25;;;;;;;24.20;8.60;;;;;-2.30;95458.00;;;;8233645;28;20270;-73
2022/12/13 12:19:36;;;;;;;19.37;8.00;;;;;-2.30;95459.00;;;;8235145;28;20258;-73
2022/12/13 12:23:53;;;;;;;20.07;7.70;;;;;-2.30;95449.00;;;;8233229;28;20207;-72
2022/12/13 12:28:05;;;;;;;18.17;8.60;;;;;-2.20;95438.00;;;;8234420;28;20188;-72
2022/12/13 12:32:21;;;;;;;17.57;8.27;;;;;-2.20;95444.00;;;;8233750;28;20192;-72
2022/12/13 12:36:36;;;;;;;19.00;8.77;;;;;-2.30;95448.00;;;;8233879;28;20196;-72
2022/12/13 12:41:04;;;;;;;20.90;9.07;;;;;-2.30;95437.00;;;;8233011;28;20243;-70
2022/12/13 12:45:37;;;;;;;17.00;7.43;;;;;-2.40;95450.00;;;;8233810;28;20199;-70
2022/12/13 12:50:18;;;;;;;22.47;9.03;;;;;-2.40;95458.00;;;;8233872;28;20191;-69
2022/12/13 12:54:32;;;;;;;20.30;8.97;;;;;-2.40;95443.00;;;;8233295;28;20202;-69
2022/12/13 12:58:43;;;;;;;18.47;8.13;;;;;-2.40;95441.00;;;;8237321;28;20278;-69
2022/12/13 13:02:56;;;;;;;18.10;8.13;;;;;-2.40;95438.00;;;;8239901;28;20657;-69
2022/12/13 13:07:13;;;;;;;18.73;7.80;;;;;-2.40;95438.00;;;;8239589;28;20218;-71
2022/12/13 13:11:28;;;;;;;22.87;10.33;;;;;-2.40;95441.00;;;;8239793;28;20190;-71
2022/12/13 13:15:54;;;;;;;19.67;7.77;;;;;-2.30;95441.00;;;;8239361;28;20259;-70
2022/12/13 13:20:22;;;;;;;15.37;7.10;;;;;-2.30;95440.00;;;;8239329;28;20215;-71
2022/12/13 13:24:28;;;;;;;18.57;7.13;;;;;-2.20;95436.00;;;;8239001;28;20218;-71
2022/12/13 13:28:32;;;;;;;17.63;8.17;;;;;-2.20;95444.00;;;;8238583;28;20215;-70
2022/12/13 13:32:39;;;;;;;16.77;7.17;;;;;-2.20;95445.00;;;;8239516;28;20514;-71
2022/12/13 13:36:46;;;;;;;19.23;7.07;;;;;-2.20;95461.00;;;;8239470;28;20696;-72
2022/12/13 13:41:26;;;;;;;26.17;8.17;;;;;-2.30;95459.00;;;;8236407;28;20227;-70
2022/12/13 13:45:48;;;;;;;15.77;7.20;;;;;-2.30;95448.00;;;;8238467;28;20220;-72
2022/12/13 13:50:00;;;;;;;15.77;7.37;;;;;-2.30;95459.00;;;;8238211;28;20199;-71
2022/12/13 13:54:47;;;;;;;14.87;7.17;;;;;-2.40;95464.00;;;;8238258;28;20195;-71
2022/12/13 13:59:39;;;;;;;22.53;7.43;;;;;-2.40;95448.00;;;;8229063;28;20234;-71
2022/12/13 14:04:21;;;;;;;17.57;7.47;;;;;-2.40;95454.00;;;;8238172;28;20665;-71
2022/12/13 14:08:41;;;;;;;18.10;8.03;;;;;-2.40;95461.00;;;;8210460;28;20213;-71
2022/12/13 14:13:33;;;;;;;16.17;7.47;;;;;-2.50;95460.00;;;;8237400;28;20200;-72
2022/12/13 14:18:27;;;;;;;17.83;7.53;;;;;-2.50;95461.00;;;;8235663;28;20231;-72
2022/12/13 14:22:55;;;;;;;15.33;7.00;;;;;-2.60;95454.00;;;;8237691;28;20226;-71
2022/12/13 14:27:16;;;;;;;19.67;8.60;;;;;-2.80;95443.00;;;;8238690;28;20203;-72
2022/12/13 14:31:23;;;;;;;43.53;14.80;;;;;-2.80;95447.00;;;;8237513;28;20196;-72
2022/12/13 14:35:57;;;;;;;31.83;11.83;;;;;-2.90;95458.00;;;;8238158;28;20199;-72
2022/12/13 14:40:34;;;;;;;26.30;12.30;;;;;-3.00;95451.00;;;;8235613;28;20223;-74
2022/12/13 14:45:21;;;;;;;34.70;13.87;;;;;-3.00;95449.00;;;;8237628;28;20195;-74
2022/12/13 14:49:27;;;;;;;24.43;9.57;;;;;-3.10;95445.00;;;;8233023;28;20196;-72
2022/12/13 14:53:36;;;;;;;16.87;8.07;;;;;-3.30;95440.00;;;;8235366;28;20199;-74
2022/12/13 14:57:40;;;;;;;20.40;7.30;;;;;-3.40;95436.00;;;;8235777;28;20282;-75
2022/12/13 15:02:16;;;;;;;15.80;6.63;;;;;-3.60;95426.00;;;;8236468;28;20560;-75
2022/12/13 15:06:34;;;;;;;19.97;7.33;;;;;-3.80;95424.00;;;;8235849;28;20293;-75
2022/12/13 15:10:40;;;;;;;20.20;8.30;;;;;-4.10;95417.00;;;;8235800;28;20192;-75
2022/12/13 15:15:22;;;;;;;23.73;8.57;;;;;-4.20;95417.00;;;;8235895;28;20251;-70
2022/12/13 15:19:27;;;;;;;25.77;10.23;;;;;-4.30;95422.00;;;;8237453;28;20219;-76
2022/12/13 15:23:38;;;;;;;23.77;8.33;;;;;-4.40;95418.00;;;;8235995;28;20278;-77
2022/12/13 15:28:13;;;;;;;18.53;7.70;;;;;-4.30;95415.00;;;;8234827;28;20186;-77
2022/12/13 15:32:22;;;;;;;19.23;7.87;;;;;-4.40;95418.00;;;;8234612;28;20525;-76
2022/12/13 15:36:26;;;;;;;22.30;8.53;;;;;-4.50;95405.00;;;;8235617;28;20621;-76
2022/12/13 15:40:31;;;;;;;22.63;9.10;;;;;-4.60;95409.00;;;;8234154;28;20228;-74
2022/12/13 15:44:41;;;;;;;25.07;8.43;;;;;-4.70;95408.00;;;;8234540;28;20257;-75
2022/12/13 15:48:44;;;;;;;24.10;9.37;;;;;-4.70;95411.00;;;;8234377;28;20180;-75
2022/12/13 15:53:23;;;;;;;23.90;7.57;;;;;-4.80;95426.00;;;;8230669;28;20195;-77
2022/12/13 15:57:30;;;;;;;19.50;8.07;;;;;-4.80;95419.00;;;;8234436;28;20212;-71
2022/12/13 16:01:35;;;;;;;21.67;7.30;;;;;-4.80;95422.00;;;;8233536;28;20211;-74
2022/12/13 16:05:42;;;;;;;18.70;7.40;;;;;-4.70;95415.00;;;;8234299;28;20238;-77
2022/12/13 16:09:49;;;;;;;17.77;8.13;;;;;-4.80;95418.00;;;;8232280;28;20660;-76
2022/12/13 16:13:53;;;;;;;12.97;7.33;;;;;-4.60;95417.00;;;;8234601;28;20214;-77
2022/12/13 16:18:31;;;;;;;23.07;9.30;;;;;-4.50;95413.00;;;;8233108;28;20199;-77
2022/12/13 16:22:34;;;;;;;26.17;8.63;;;;;-4.50;95416.00;;;;8233631;28;20223;-77
2022/12/13 16:26:37;;;;;;;19.10;8.17;;;;;-4.50;95414.00;;;;8231226;28;20215;-77
2022/12/13 16:31:02;;;;;;;19.13;7.60;;;;;-4.40;95421.00;;;;8234377;28;20271;-78
2022/12/13 16:35:05;;;;;;;20.63;7.90;;;;;-4.40;95412.00;;;;8237139;28;20195;-76
2022/12/13 16:39:40;;;;;;;18.20;8.80;;;;;-4.30;95414.00;;;;8236903;28;20276;-77
2022/12/13 16:43:52;;;;;;;18.87;8.07;;;;;-4.20;95414.00;;;;8236517;28;20195;-78
2022/12/13 16:47:56;;;;;;;17.97;7.30;;;;;-4.10;95411.00;;;;8241171;28;20246;-78
2022/12/13 16:52:01;;;;;;;20.30;7.50;;;;;-4.10;95403.00;;;;8240601;28;20206;-78
2022/12/13 16:56:38;;;;;;;19.23;7.80;;;;;-4.10;95384.00;;;;8238244;28;20199;-78
2022/12/13 17:00:43;;;;;;;20.47;6.93;;;;;-4.10;95379.00;;;;8239641;28;20231;-78
2022/12/13 17:04:48;;;;;;;18.53;7.33;;;;;-4.10;95376.00;;;;8240004;28;20219;-78
2022/12/13 17:09:23;;;;;;;15.53;8.23;;;;;-4.10;95379.00;;;;8239379;28;20250;-78
2022/12/13 17:13:26;;;;;;;27.53;8.57;;;;;-4.20;95377.00;;;;8239376;28;20242;-78
2022/12/13 17:17:30;;;;;;;20.80;9.37;;;;;-4.20;95396.00;;;;8239885;28;20284;-79
2022/12/13 17:21:34;;;;;;;27.43;9.63;;;;;-4.10;95385.00;;;;8239120;28;20277;-79
2022/12/13 17:25:38;;;;;;;18.67;8.73;;;;;-3.90;95382.00;;;;8238815;28;20203;-78
2022/12/13 17:29:41;;;;;;;35.03;13.70;;;;;-3.80;95376.00;;;;8239575;28;20696;-78
2022/12/13 17:34:18;;;;;;;27.53;14.77;;;;;-3.80;95375.00;;;;8239695;28;20206;-78
2022/12/13 17:38:23;;;;;;;32.20;9.43;;;;;-3.70;95369.00;;;;8238042;28;20199;-76
2022/12/13 17:42:56;;;;;;;28.13;10.00;;;;;-3.70;95357.00;;;;8239192;28;20234;-79
2022/12/13 17:46:59;;;;;;;21.93;9.10;;;;;-3.70;95360.00;;;;8238621;28;20719;-78
2022/12/13 17:51:37;;;;;;;27.83;10.53;;;;;-3.70;95357.00;;;;8237633;28;20207;-78
2022/12/13 17:56:16;;;;;;;23.83;10.40;;;;;-3.80;95362.00;;;;8237935;28;20206;-79
2022/12/13 18:00:50;;;;;;;25.67;9.73;;;;;-3.80;95352.00;;;;8238181;28;20665;-78
2022/12/13 18:04:53;;;;;;;22.33;9.70;;;;;-3.90;95356.00;;;;8237953;28;20231;-79
2022/12/13 18:08:56;;;;;;;21.23;9.43;;;;;-4.00;95366.00;;;;8237476;28;20209;-78
2022/12/13 18:13:00;;;;;;;28.17;11.77;;;;;-4.10;95361.00;;;;8237717;28;20206;-78
2022/12/13 18:17:34;;;;;;;24.83;10.23;;;;;-4.20;95369.00;;;;8237398;28;20199;-79
2022/12/13 18:22:10;;;;;;;25.47;9.57;;;;;-4.30;95361.00;;;;8236587;28;20319;-78
2022/12/13 18:26:44;;;;;;;27.80;10.03;;;;;-4.40;95353.00;;;;8236876;28;20257;-78
2022/12/13 18:31:23;;;;;;;28.03;9.90;;;;;-4.40;95361.00;;;;8234769;28;20199;-78
2022/12/13 18:35:57;;;;;;;31.40;10.00;;;;;-4.40;95359.00;;;;8235348;28;20187;-76
2022/12/13 18:40:34;;;;;;;28.23;11.50;;;;;-4.40;95362.00;;;;8235974;28;20266;-77
2022/12/13 18:45:11;;;;;;;28.53;10.07;;;;;-4.30;95351.00;;;;8236965;28;20553;-77
2022/12/13 18:49:16;;;;;;;26.03;10.27;;;;;-4.30;95348.00;;;;8237188;28;20660;-79
2022/12/13 18:53:51;;;;;;;30.50;11.60;;;;;-4.20;95362.00;;;;8236271;28;20195;-79
2022/12/13 18:58:28;;;;;;;30.13;11.77;;;;;-4.20;95352.00;;;;8236137;28;20582;-79
2022/12/13 19:03:05;;;;;;;28.37;11.90;;;;;-4.20;95353.00;;;;8236788;28;20231;-76
2022/12/13 19:07:43;;;;;;;32.67;11.77;;;;;-4.10;95352.00;;;;8232955;28;20215;-77
2022/12/13 19:12:17;;;;;;;36.47;11.60;;;;;-4.10;95340.00;;;;8235658;28;20200;-78
2022/12/13 19:16:54;;;;;;;26.20;11.13;;;;;-4.10;95352.00;;;;8236226;28;20204;-77
2022/12/13 19:20:57;;;;;;;29.67;10.63;;;;;-4.00;95361.00;;;;8234923;28;20786;-79
2022/12/13 19:25:02;;;;;;;32.70;12.17;;;;;-4.00;95359.00;;;;8235248;28;20569;-80
2022/12/13 19:29:05;;;;;;;34.87;13.13;;;;;-4.00;95361.00;;;;8234555;28;20207;-79
2022/12/13 19:33:42;;;;;;;36.70;12.50;;;;;-4.10;95351.00;;;;8235255;28;20206;-80
2022/12/13 19:37:45;;;;;;;28.93;12.10;;;;;-4.20;95346.00;;;;8234517;28;20200;-80
2022/12/13 19:42:24;;;;;;;35.70;12.73;;;;;-4.20;95341.00;;;;8235099;28;20277;-79
2022/12/13 19:46:27;;;;;;;31.30;11.27;;;;;-4.20;95328.00;;;;8234710;28;20637;-80
2022/12/13 19:50:30;;;;;;;32.27;11.60;;;;;-4.30;95334.00;;;;8234568;28;20211;-80
2022/12/13 19:55:07;;;;;;;33.43;11.47;;;;;-4.20;95343.00;;;;8234025;28;20269;-77
2022/12/13 19:59:46;;;;;;;38.83;12.63;;;;;-4.20;95336.00;;;;8234827;28;20198;-80
2022/12/13 20:04:23;;;;;;;33.87;13.83;;;;;-4.30;95329.00;;;;8233707;28;20243;-78
2022/12/13 20:08:59;;;;;;;29.80;10.87;;;;;-4.20;95322.00;;;;8233731;28;20203;-79
2022/12/13 20:13:38;;;;;;;25.70;11.63;;;;;-4.20;95312.00;;;;8234167;28;20663;-78
2022/12/13 20:18:13;;;;;;;32.73;12.57;;;;;-4.20;95311.00;;;;8233231;28;20202;-79
2022/12/13 20:22:16;;;;;;;29.83;11.60;;;;;-4.20;95307.00;;;;8233508;28;20629;-79
2022/12/13 20:26:56;;;;;;;27.93;11.87;;;;;-4.20;95297.00;;;;8233327;28;20195;-78
2022/12/13 20:31:05;;;;;;;27.40;11.20;;;;;-4.20;95288.00;;;;8233101;28;20235;-79
2022/12/13 20:35:44;;;;;;;35.73;13.60;;;;;-4.30;95273.00;;;;8235372;28;20234;-79
2022/12/13 20:40:16;;;;;;;34.53;13.50;;;;;-4.30;95269.00;;;;8233632;28;20199;-79
2022/12/13 20:44:52;;;;;;;34.23;13.10;;;;;-4.30;95272.00;;;;8233142;28;20215;-78
2022/12/13 20:48:57;;;;;;;42.47;14.93;;;;;-4.30;95258.00;;;;8232817;28;20199;-78
2022/12/13 20:53:02;;;;;;;23.87;9.97;;;;;-4.30;95256.00;;;;8234735;28;20266;-79
2022/12/13 20:57:05;;;;;;;34.27;13.93;;;;;-4.30;95252.00;;;;8232724;28;20209;-79
2022/12/13 21:01:43;;;;;;;37.60;13.77;;;;;-4.40;95250.00;;;;8234184;28;20243;-79